Time;durP1;ratioP1;P1;durP2;ratioP2;P2;SDS_P1;SDS_P2;PMS_P1;PMS_P2;Temp;Humidity;BMP_temperature;BMP_pressure;BME280_temperature;BME280_humidity;BME280_pressure;Samples;Min_cycle;Max_cycle;Signal;HPM_P1;HPM_P2
2022/01/10 00:01:43;;;;;;;12.33;8.55;;;;;;;3.44;77.97;100206.28;1744565;81;22165;-79
2022/01/10 00:04:10;;;;;;;13.48;8.33;;;;;;;3.44;77.91;100203.69;1744542;81;20897;-79
2022/01/10 00:06:37;;;;;;;14.20;8.28;;;;;;;3.44;77.83;100195.91;1744577;81;20893;-79
2022/01/10 00:09:06;;;;;;;15.75;7.83;;;;;;;3.44;77.72;100197.20;1744507;81;20984;-79
2022/01/10 00:11:32;;;;;;;11.45;7.20;;;;;;;3.43;77.69;100195.98;1744642;81;20873;-78
2022/01/10 00:13:59;;;;;;;9.35;6.05;;;;;;;3.42;77.69;100198.17;1744553;81;21761;-78
2022/01/10 00:16:27;;;;;;;8.75;6.20;;;;;;;3.41;77.75;100195.20;1744429;81;20921;-79
2022/01/10 00:18:54;;;;;;;8.75;6.92;;;;;;;3.37;77.79;100194.45;1744474;81;21004;-78
2022/01/10 00:21:22;;;;;;;8.93;6.85;;;;;;;3.34;77.86;100190.69;1744455;81;20948;-79
2022/01/10 00:23:49;;;;;;;9.20;6.40;;;;;;;3.31;77.90;100190.78;1744314;81;20913;-79
2022/01/10 00:26:15;;;;;;;10.28;6.47;;;;;;;3.29;77.97;100189.99;1744769;81;22172;-80
2022/01/10 00:28:42;;;;;;;8.50;6.33;;;;;;;3.27;78.10;100186.64;1757346;81;20995;-80
2022/01/10 00:31:09;;;;;;;8.50;6.15;;;;;;;3.30;78.11;100190.41;1757854;80;20896;-80
2022/01/10 00:33:36;;;;;;;7.75;6.65;;;;;;;3.30;78.15;100191.70;1757744;81;20911;-81
2022/01/10 00:36:03;;;;;;;12.03;7.03;;;;;;;3.31;78.13;100194.25;1757811;81;21046;-80
2022/01/10 00:38:31;;;;;;;13.00;7.25;;;;;;;3.32;78.20;100188.61;1757672;81;20967;-79
2022/01/10 00:41:00;;;;;;;8.08;6.72;;;;;;;3.32;78.19;100184.27;1757683;81;20853;-79
2022/01/10 00:43:36;;;;;;;10.80;6.95;;;;;;;3.30;78.17;100186.06;1757760;81;20968;-79
2022/01/10 00:46:03;;;;;;;8.78;7.37;;;;;;;3.27;78.19;100185.35;1757510;81;21658;-79
2022/01/10 00:48:30;;;;;;;12.33;8.05;;;;;;;3.23;78.29;100175.53;1757981;80;21011;-78
2022/01/10 00:50:57;;;;;;;9.38;6.35;;;;;;;3.19;78.36;100179.14;1757712;80;21072;-79
2022/01/10 00:53:25;;;;;;;11.88;7.50;;;;;;;3.19;78.44;100173.95;1757941;81;20936;-79
2022/01/10 00:55:55;;;;;;;10.55;7.08;;;;;;;3.17;78.50;100180.09;1759291;81;21004;-78
2022/01/10 00:58:21;;;;;;;8.78;6.25;;;;;;;3.15;78.61;100176.26;1758628;80;21022;-79
2022/01/10 01:00:51;;;;;;;11.80;7.40;;;;;;;3.14;78.79;100175.87;1757907;80;21343;-80
2022/01/10 01:03:18;;;;;;;10.38;6.30;;;;;;;3.13;78.86;100173.33;1758236;80;21111;-79
2022/01/10 01:05:45;;;;;;;10.70;7.55;;;;;;;3.14;78.99;100176.34;1757655;81;20936;-79
2022/01/10 01:08:13;;;;;;;8.15;6.45;;;;;;;3.17;79.06;100171.87;1758075;81;21018;-80
2022/01/10 01:13:32;;;;;;;8.33;5.92;;;;;;;3.23;79.03;100169.06;1757794;81;21406;-79
2022/01/10 01:16:12;;;;;;;11.53;6.90;;;;;;;3.22;79.00;100167.81;1757454;81;21597;-80
2022/01/10 01:24:02;;;;;;;8.85;6.72;;;;;;;3.17;79.22;100167.98;1758239;81;21458;-78
2022/01/10 01:26:31;;;;;;;15.18;7.10;;;;;;;3.19;79.30;100169.23;1757951;80;20920;-79
2022/01/10 01:28:58;;;;;;;12.98;6.83;;;;;;;3.19;79.30;100164.89;1757437;81;21127;-80
2022/01/10 01:31:25;;;;;;;13.38;6.95;;;;;;;3.19;79.17;100164.05;1759047;81;20929;-80
2022/01/10 01:33:51;;;;;;;11.15;6.87;;;;;;;3.16;79.21;100158.96;1758702;81;21425;-79
2022/01/10 01:36:24;;;;;;;12.18;7.12;;;;;;;3.12;79.22;100159.55;1758047;81;20896;-80
2022/01/10 01:38:52;;;;;;;8.53;5.95;;;;;;;3.11;79.30;100169.49;1758357;81;20892;-79
2022/01/10 01:43:52;;;;;;;11.75;6.92;;;;;;;3.14;79.45;100175.04;1789864;80;20906;-79
2022/01/10 01:46:19;;;;;;;11.70;6.22;;;;;;;3.17;79.51;100171.03;1789606;78;20864;-80
2022/01/10 01:48:47;;;;;;;9.68;6.20;;;;;;;3.19;79.42;100170.06;1790051;80;20979;-79
2022/01/10 01:51:14;;;;;;;12.93;5.85;;;;;;;3.22;79.45;100169.94;1789607;79;21412;-78
2022/01/10 01:53:43;;;;;;;11.83;6.17;;;;;;;3.23;79.49;100160.45;1789470;80;21475;-78
2022/01/10 01:56:11;;;;;;;10.85;6.60;;;;;;;3.27;79.54;100158.98;1789519;80;20923;-80
2022/01/10 01:58:38;;;;;;;10.05;5.65;;;;;;;3.35;79.43;100155.25;1789936;80;21409;-77
2022/01/10 02:01:06;;;;;;;10.78;5.97;;;;;;;3.39;79.33;100148.59;1789555;80;20946;-80
2022/01/10 02:03:33;;;;;;;16.60;6.83;;;;;;;3.39;79.03;100147.75;1790142;80;20955;-78
2022/01/10 02:06:02;;;;;;;10.70;6.25;;;;;;;3.42;79.00;100148.92;1790138;80;21154;-80
2022/01/10 02:08:29;;;;;;;11.95;6.50;;;;;;;3.43;78.87;100143.69;1789537;80;21330;-78
2022/01/10 02:10:56;;;;;;;13.62;8.10;;;;;;;3.44;78.89;100145.83;1789689;80;20983;-78
2022/01/10 02:13:23;;;;;;;13.78;7.55;;;;;;;3.44;78.64;100143.23;1789479;80;20916;-78
2022/01/10 02:15:59;;;;;;;13.35;6.95;;;;;;;3.41;78.68;100131.70;1789621;80;20871;-79
2022/01/10 02:18:23;;;;;;;14.98;7.70;;;;;;;3.40;78.74;100132.59;1715065;80;21136;-79
2022/01/10 02:20:51;;;;;;;19.55;8.28;;;;;;;3.38;78.68;100129.20;1790404;77;20895;-78
2022/01/10 02:23:19;;;;;;;16.85;8.50;;;;;;;3.35;78.73;100128.04;1791031;80;20923;-78
2022/01/10 02:26:07;;;;;;;17.55;8.23;;;;;;;3.32;78.87;100125.11;1789352;80;20836;-78
2022/01/10 02:28:35;;;;;;;17.12;8.65;;;;;;;3.33;78.95;100137.16;1787624;79;20950;-78
2022/01/10 02:31:07;;;;;;;15.43;7.97;;;;;;;3.34;79.05;100140.16;1786603;79;21078;-79
2022/01/10 02:33:34;;;;;;;17.57;9.00;;;;;;;3.37;78.98;100138.73;1786748;80;20887;-78
2022/01/10 02:36:20;;;;;;;19.20;9.08;;;;;;;3.38;78.88;100140.44;1786174;80;21508;-78
2022/01/10 02:38:34;;;;;;;16.90;7.60;;;;;;;3.37;78.87;100139.19;1753165;80;20895;-78
2022/01/10 02:41:02;;;;;;;14.58;9.23;;;;;;;3.36;78.99;100142.24;1786572;80;20864;-79
2022/01/10 02:43:30;;;;;;;12.63;7.90;;;;;;;3.39;79.21;100157.66;1786548;79;21198;-78
2022/01/10 02:45:57;;;;;;;14.45;9.20;;;;;;;3.39;79.04;100149.89;1786787;80;20824;-77
2022/01/10 02:48:24;;;;;;;13.13;8.65;;;;;;;3.40;78.99;100155.91;1786491;80;20899;-78
2022/01/10 02:50:51;;;;;;;16.23;7.55;;;;;;;3.38;79.02;100160.30;1786396;80;20880;-79
2022/01/10 02:53:19;;;;;;;16.20;7.97;;;;;;;3.37;78.97;100158.17;1786502;80;21404;-77
2022/01/10 02:55:46;;;;;;;15.05;7.95;;;;;;;3.36;78.97;100175.94;1786787;80;21486;-78
2022/01/10 02:58:13;;;;;;;13.05;8.00;;;;;;;3.36;79.04;100187.59;1757869;80;20962;-78
2022/01/10 03:00:40;;;;;;;14.00;7.50;;;;;;;3.36;79.14;100186.30;1786904;80;20915;-78
2022/01/10 03:03:07;;;;;;;15.45;6.67;;;;;;;3.41;79.21;100196.49;1786562;80;20868;-79
2022/01/10 03:05:34;;;;;;;19.75;8.00;;;;;;;3.44;79.19;100193.78;1758052;80;20891;-79
2022/01/10 03:08:03;;;;;;;14.10;7.20;;;;;;;3.46;79.28;100199.29;1786309;79;21085;-79
2022/01/10 03:10:31;;;;;;;16.55;7.28;;;;;;;3.51;79.22;100206.47;1786460;80;20919;-79
2022/01/10 03:12:59;;;;;;;18.45;8.03;;;;;;;3.55;79.07;100207.17;1786454;80;20868;-79
2022/01/10 03:15:26;;;;;;;17.45;7.90;;;;;;;3.55;78.92;100201.16;1786472;80;20947;-80
2022/01/10 03:17:52;;;;;;;17.12;8.90;;;;;;;3.51;78.96;100198.69;1786510;80;20931;-79
2022/01/10 03:20:19;;;;;;;15.78;8.13;;;;;;;3.50;78.92;100206.05;1786551;80;21129;-78
2022/01/10 03:22:46;;;;;;;18.37;8.63;;;;;;;3.49;78.99;100208.69;1786454;79;21405;-78
2022/01/10 03:25:13;;;;;;;13.72;7.92;;;;;;;3.49;79.10;100206.10;1786731;80;20927;-78
2022/01/10 03:27:42;;;;;;;12.78;7.58;;;;;;;3.48;79.02;100212.20;1786617;79;21003;-80
2022/01/10 03:30:10;;;;;;;14.78;8.05;;;;;;;3.48;79.05;100209.16;1786519;80;20868;-77
2022/01/10 03:32:38;;;;;;;13.32;8.00;;;;;;;3.48;78.95;100210.91;1786361;79;21156;-78
2022/01/10 03:35:07;;;;;;;17.90;10.03;;;;;;;3.46;79.09;100209.66;1785385;80;20918;-79
2022/01/10 03:37:34;;;;;;;12.73;7.85;;;;;;;3.47;79.29;100220.44;1757852;79;20954;-80
2022/01/10 03:40:01;;;;;;;15.83;8.70;;;;;;;3.46;79.33;100220.03;1786710;80;21017;-79
2022/01/10 03:42:29;;;;;;;14.53;7.85;;;;;;;3.47;79.71;100225.62;1786457;80;20910;-80
2022/01/10 03:44:56;;;;;;;12.70;9.43;;;;;;;3.48;79.69;100219.52;1786566;80;21549;-79
2022/01/10 03:47:23;;;;;;;20.25;10.70;;;;;;;3.48;79.81;100219.52;1787377;79;20970;-77
2022/01/10 03:49:50;;;;;;;15.32;8.08;;;;;;;3.52;80.19;100223.70;1787277;79;20993;-78
2022/01/10 03:52:17;;;;;;;12.40;8.80;;;;;;;3.56;79.96;100223.14;1786443;79;20919;-77
2022/01/10 03:54:44;;;;;;;11.75;6.97;;;;;;;3.53;79.82;100216.33;1787266;80;21423;-80
2022/01/10 03:57:11;;;;;;;13.40;8.73;;;;;;;3.52;79.90;100222.86;1786580;80;21154;-78
2022/01/10 03:59:38;;;;;;;14.70;8.88;;;;;;;3.52;80.03;100221.10;1786716;79;20871;-78
2022/01/10 04:02:05;;;;;;;12.03;7.83;;;;;;;3.56;80.12;100221.84;1786424;80;21377;-79
2022/01/10 04:04:35;;;;;;;11.03;7.83;;;;;;;3.60;80.19;100229.03;1757924;80;20939;-81
2022/01/10 04:07:01;;;;;;;17.82;8.68;;;;;;;3.67;80.34;100229.23;1786348;80;21353;-80
2022/01/10 04:09:29;;;;;;;14.58;8.68;;;;;;;3.69;80.02;100226.09;1786250;80;21553;-80
2022/01/10 04:11:57;;;;;;;16.25;8.18;;;;;;;3.65;79.76;100217.61;1786379;80;20951;-79
2022/01/10 04:14:25;;;;;;;12.37;8.48;;;;;;;3.59;79.72;100216.53;1786405;80;21080;-79
2022/01/10 04:16:52;;;;;;;20.65;10.75;;;;;;;3.56;79.81;100230.05;1758018;80;20848;-81
2022/01/10 04:19:19;;;;;;;18.07;10.35;;;;;;;3.52;79.78;100228.88;1786527;80;20872;-81
2022/01/10 04:21:46;;;;;;;17.15;9.65;;;;;;;3.47;79.76;100227.37;1786434;80;21551;-80
2022/01/10 04:24:13;;;;;;;20.40;9.05;;;;;;;3.43;79.85;100230.98;1786593;79;20852;-79
2022/01/10 04:26:40;;;;;;;22.20;11.12;;;;;;;3.40;79.98;100230.64;1786324;80;20911;-80
2022/01/10 04:29:08;;;;;;;18.07;9.75;;;;;;;3.35;80.00;100229.11;1782943;79;20908;-80
2022/01/10 04:31:35;;;;;;;17.70;9.88;;;;;;;3.29;80.17;100231.03;1780707;79;20856;-79
2022/01/10 04:34:04;;;;;;;13.90;8.63;;;;;;;3.28;80.29;100238.85;1780713;79;21161;-80
2022/01/10 04:36:31;;;;;;;18.45;10.60;;;;;;;3.27;80.45;100236.72;1780429;79;20896;-79
2022/01/10 04:38:58;;;;;;;19.27;10.85;;;;;;;3.30;80.56;100233.16;1781001;80;20975;-79
2022/01/10 04:41:27;;;;;;;18.10;11.73;;;;;;;3.28;80.51;100231.91;1780789;79;21433;-80
2022/01/10 04:43:56;;;;;;;22.15;12.82;;;;;;;3.25;80.73;100240.27;1780677;80;20955;-81
2022/01/10 04:46:23;;;;;;;19.00;12.00;;;;;;;3.24;81.12;100243.28;1780811;80;21080;-81
2022/01/10 04:48:50;;;;;;;19.40;11.57;;;;;;;3.26;81.15;100253.15;1780625;79;20924;-80
2022/01/10 04:51:20;;;;;;;24.18;12.55;;;;;;;3.27;81.18;100252.72;1780286;80;20837;-79
2022/01/10 04:53:53;;;;;;;21.10;11.97;;;;;;;3.26;81.21;100251.85;1781166;80;20899;-81
2022/01/10 04:56:20;;;;;;;17.00;12.28;;;;;;;3.24;81.14;100260.59;1780781;80;20848;-81
2022/01/10 04:58:50;;;;;;;17.75;11.90;;;;;;;3.22;81.30;100253.31;1781084;80;21770;-79
2022/01/10 05:01:18;;;;;;;14.30;9.03;;;;;;;3.27;81.64;100266.98;1780253;80;21376;-81
2022/01/10 05:03:46;;;;;;;17.02;11.35;;;;;;;3.31;81.41;100269.83;1781237;80;21408;-79
2022/01/10 05:06:13;;;;;;;17.40;11.40;;;;;;;3.30;81.27;100265.56;1780951;80;20963;-81
2022/01/10 05:08:41;;;;;;;16.42;11.22;;;;;;;3.33;81.31;100266.73;1781182;79;21338;-80
2022/01/10 05:11:10;;;;;;;18.25;11.90;;;;;;;3.38;81.46;100270.03;1780595;80;21156;-82
2022/01/10 05:13:37;;;;;;;19.98;11.97;;;;;;;3.44;81.42;100274.96;1783234;80;20899;-79
2022/01/10 05:16:05;;;;;;;21.25;11.68;;;;;;;3.52;81.49;100277.30;1751627;80;20880;-81
2022/01/10 05:18:31;;;;;;;19.65;13.10;;;;;;;3.58;81.27;100279.67;1781527;80;20919;-81
2022/01/10 05:20:58;;;;;;;19.00;14.13;;;;;;;3.63;81.03;100275.16;1781889;80;20919;-81
2022/01/10 05:23:25;;;;;;;21.20;13.45;;;;;;;3.65;80.59;100286.77;1784262;80;21601;-79
2022/01/10 05:25:57;;;;;;;18.15;12.90;;;;;;;3.59;80.31;100283.94;1784354;77;21073;-80
2022/01/10 05:28:21;;;;;;;23.00;15.80;;;;;;;3.44;80.19;100265.05;1784035;78;21033;-78
2022/01/10 05:30:49;;;;;;;23.20;13.48;;;;;;;3.49;80.15;100286.03;1789629;80;20896;-79
2022/01/10 05:33:17;;;;;;;17.45;12.98;;;;;;;3.45;80.09;100291.39;1789862;77;20943;-79
2022/01/10 05:35:46;;;;;;;20.85;12.60;;;;;;;3.41;80.19;100293.69;1789541;77;21460;-79
2022/01/10 05:38:13;;;;;;;18.98;11.63;;;;;;;3.40;80.54;100290.26;1789777;78;20958;-80
2022/01/10 05:40:40;;;;;;;16.67;12.35;;;;;;;3.42;80.74;100292.31;1789329;78;20813;-78
2022/01/10 05:43:08;;;;;;;21.77;13.85;;;;;;;3.44;80.50;100287.09;1760620;78;20911;-78
2022/01/10 05:45:35;;;;;;;22.50;14.25;;;;;;;3.41;80.34;100294.98;1789044;77;20960;-80
2022/01/10 05:48:08;;;;;;;24.18;14.85;;;;;;;3.37;80.62;100294.69;1759941;77;21486;-79
2022/01/10 05:50:34;;;;;;;21.97;15.20;;;;;;;3.39;80.94;100298.08;1788016;78;21117;-80
2022/01/10 05:53:01;;;;;;;22.40;13.98;;;;;;;3.42;80.86;100301.39;1760512;78;20950;-80
2022/01/10 05:55:28;;;;;;;24.63;16.02;;;;;;;3.44;80.84;100300.89;1789175;77;20978;-80
2022/01/10 05:57:55;;;;;;;25.72;14.18;;;;;;;3.43;80.87;100296.62;1789100;77;20934;-79
2022/01/10 06:00:22;;;;;;;38.53;18.32;;;;;;;3.46;81.04;100308.16;1789033;78;21134;-82
2022/01/10 06:02:49;;;;;;;26.68;15.53;;;;;;;3.48;80.82;100309.41;1789403;78;20848;-80
2022/01/10 06:05:31;;;;;;;25.77;16.10;;;;;;;3.46;80.85;100311.21;1788080;77;20935;-80
2022/01/10 06:07:59;;;;;;;29.50;15.15;;;;;;;3.45;80.91;100315.55;1789024;77;21063;-83
2022/01/10 06:10:26;;;;;;;30.60;16.07;;;;;;;3.44;80.82;100313.84;1788876;77;20887;-78
2022/01/10 06:12:56;;;;;;;30.82;18.60;;;;;;;3.43;80.81;100307.44;1789247;77;21123;-80
2022/01/10 06:15:23;;;;;;;35.30;19.73;;;;;;;3.39;80.67;100307.98;1789141;77;20931;-80
2022/01/10 06:17:50;;;;;;;42.00;21.17;;;;;;;3.28;80.70;100309.66;1789242;77;20947;-81
2022/01/10 06:20:19;;;;;;;45.98;22.37;;;;;;;3.19;80.99;100308.69;1788562;77;21001;-82
2022/01/10 06:22:46;;;;;;;43.80;23.10;;;;;;;3.16;81.30;100315.28;1786927;80;20907;-80
2022/01/10 06:25:17;;;;;;;42.13;24.37;;;;;;;3.11;81.43;100330.11;1786447;80;21773;-80
2022/01/10 06:27:44;;;;;;;48.83;24.10;;;;;;;3.09;81.64;100334.50;1786678;80;20888;-80
2022/01/10 06:30:11;;;;;;;46.98;25.55;;;;;;;3.10;81.83;100338.80;1782185;80;20911;-81
2022/01/10 06:32:40;;;;;;;40.40;23.25;;;;;;;3.07;81.84;100341.05;1780915;80;20887;-80
2022/01/10 06:35:09;;;;;;;44.95;26.60;;;;;;;3.04;81.98;100338.54;1752243;80;21435;-81
2022/01/10 06:37:36;;;;;;;49.18;28.17;;;;;;;3.01;82.09;100339.95;1750841;80;21068;-83
2022/01/10 06:40:05;;;;;;;50.05;28.30;;;;;;;2.98;82.24;100349.55;1782946;80;21019;-79
2022/01/10 06:42:32;;;;;;;49.27;27.58;;;;;;;2.95;82.43;100345.33;1781367;79;20966;-79
2022/01/10 06:44:59;;;;;;;50.25;27.85;;;;;;;2.95;82.52;100349.21;1780744;79;20883;-80
2022/01/10 06:47:27;;;;;;;49.53;27.42;;;;;;;2.94;82.59;100351.42;1780923;79;20856;-78
2022/01/10 06:49:56;;;;;;;47.67;28.83;;;;;;;2.92;82.74;100345.44;1780777;79;20935;-80
2022/01/10 06:52:23;;;;;;;51.13;29.50;;;;;;;2.93;82.82;100344.53;1780650;80;20951;-79
2022/01/10 06:54:51;;;;;;;53.17;32.73;;;;;;;2.94;82.96;100346.23;1780782;80;20911;-80
2022/01/10 06:57:18;;;;;;;63.38;32.13;;;;;;;2.96;83.08;100348.75;1781202;80;20946;-80
2022/01/10 06:59:45;;;;;;;55.98;32.42;;;;;;;2.99;83.19;100343.49;1780601;80;20923;-82
2022/01/10 07:02:12;;;;;;;54.90;27.73;;;;;;;3.07;83.55;100346.69;1780784;79;21149;-80
2022/01/10 07:04:39;;;;;;;51.58;28.62;;;;;;;3.17;83.65;100348.51;1780612;79;21056;-81
2022/01/10 07:07:07;;;;;;;49.93;29.30;;;;;;;3.23;83.27;100338.78;1780531;80;21345;-81
2022/01/10 07:09:36;;;;;;;51.42;27.73;;;;;;;3.26;83.04;100346.44;1780703;80;20920;-80
2022/01/10 07:12:06;;;;;;;49.05;27.87;;;;;;;3.26;82.88;100341.71;1780361;79;21074;-81
2022/01/10 07:14:36;;;;;;;44.55;24.57;;;;;;;3.28;83.03;100344.64;1780423;80;21446;-78
2022/01/10 07:17:04;;;;;;;45.43;22.50;;;;;;;3.31;82.91;100344.55;1780933;79;20923;-80
2022/01/10 07:19:31;;;;;;;38.98;22.32;;;;;;;3.30;82.69;100342.84;1780730;79;21456;-80
2022/01/10 07:21:58;;;;;;;39.40;23.00;;;;;;;3.29;82.68;100342.89;1780621;80;20888;-79
2022/01/10 07:24:25;;;;;;;42.40;22.77;;;;;;;3.31;82.73;100341.97;1780810;80;20916;-81
2022/01/10 07:26:51;;;;;;;38.73;19.45;;;;;;;3.36;82.88;100344.39;1780693;79;21136;-82
2022/01/10 07:29:18;;;;;;;38.13;21.37;;;;;;;3.44;82.85;100336.34;1782290;80;20939;-80
2022/01/10 07:31:45;;;;;;;39.60;20.52;;;;;;;3.48;82.76;100347.00;1786415;80;20911;-81
2022/01/10 07:34:15;;;;;;;37.15;20.23;;;;;;;3.52;82.62;100348.59;1786283;80;20879;-83
2022/01/10 07:36:41;;;;;;;38.48;21.97;;;;;;;3.55;82.60;100348.47;1786431;79;21016;-80
2022/01/10 07:39:08;;;;;;;42.55;22.77;;;;;;;3.65;82.90;100355.03;1786499;79;21794;-82
2022/01/10 07:41:34;;;;;;;40.50;22.67;;;;;;;3.78;82.73;100358.47;1786429;80;20916;-82
2022/01/10 07:44:01;;;;;;;38.98;23.73;;;;;;;3.84;82.61;100366.88;1786426;79;21473;-82
2022/01/10 07:46:28;;;;;;;46.15;26.10;;;;;;;3.94;82.37;100368.23;1786549;80;20856;-85
2022/01/10 07:48:55;;;;;;;34.67;20.97;;;;;;;3.99;82.01;100369.82;1786446;80;20983;-83
2022/01/10 07:51:26;;;;;;;32.13;19.70;;;;;;;4.01;81.78;100368.02;1786959;80;21147;-81
2022/01/10 07:53:53;;;;;;;37.58;19.73;;;;;;;4.00;81.68;100368.45;1786452;80;21005;-83
2022/01/10 07:56:20;;;;;;;35.52;18.23;;;;;;;4.00;81.78;100367.61;1786617;80;20916;-82
2022/01/10 07:58:50;;;;;;;28.98;18.92;;;;;;;4.06;81.82;100363.50;1786477;79;20907;-84
2022/01/10 08:01:15;;;;;;;35.60;21.40;;;;;;;4.13;81.61;100368.84;1786799;80;21365;-82
2022/01/10 08:03:42;;;;;;;31.45;18.57;;;;;;;4.19;81.48;100376.41;1788064;79;21116;-82
2022/01/10 08:06:09;;;;;;;34.58;19.92;;;;;;;4.26;81.21;100375.72;1787926;80;20876;-82
2022/01/10 08:08:36;;;;;;;37.08;19.32;;;;;;;4.31;80.99;100384.17;1786419;80;20887;-84
2022/01/10 08:11:03;;;;;;;34.27;20.08;;;;;;;4.34;80.73;100386.67;1786690;79;21005;-83
2022/01/10 08:13:31;;;;;;;34.18;19.67;;;;;;;4.35;80.63;100387.89;1786541;80;20903;-83
2022/01/10 08:15:58;;;;;;;37.98;20.92;;;;;;;4.39;80.54;100386.50;1786698;80;21377;-82
2022/01/10 08:18:25;;;;;;;32.98;19.27;;;;;;;4.40;80.48;100385.58;1786567;79;20884;-82
2022/01/10 08:20:52;;;;;;;34.95;19.25;;;;;;;4.44;80.40;100385.86;1786674;79;20848;-83
2022/01/10 08:23:19;;;;;;;40.20;22.02;;;;;;;4.44;80.14;100380.66;1786361;80;20891;-82
2022/01/10 08:25:46;;;;;;;38.17;20.50;;;;;;;4.42;80.09;100378.58;1786720;80;21056;-83
2022/01/10 08:28:13;;;;;;;39.35;23.20;;;;;;;4.41;80.25;100379.04;1786415;79;21072;-82
2022/01/10 08:30:40;;;;;;;47.00;29.35;;;;;;;4.42;80.26;100365.14;1782013;80;20916;-82
2022/01/10 08:33:07;;;;;;;36.60;21.20;;;;;;;4.44;80.46;100363.33;1780578;80;20905;-82
2022/01/10 08:35:34;;;;;;;47.15;26.00;;;;;;;4.49;80.31;100365.31;1780855;80;21496;-83
2022/01/10 08:38:01;;;;;;;53.60;27.07;;;;;;;4.49;80.00;100365.31;1780580;80;21342;-81
2022/01/10 08:40:28;;;;;;;40.83;21.97;;;;;;;4.46;79.88;100352.44;1780918;80;21111;-82
2022/01/10 08:44:04;;;;;;;42.35;24.07;;;;;;;4.46;79.94;100350.30;1798595;79;23232;-82
2022/01/10 08:46:31;;;;;;;47.15;24.63;;;;;;;4.43;80.05;100357.76;1758315;80;21405;-82
2022/01/10 08:48:58;;;;;;;53.52;23.67;;;;;;;4.45;80.12;100354.66;1758069;81;21131;-83
2022/01/10 08:51:29;;;;;;;41.18;22.67;;;;;;;4.46;80.05;100359.39;1758133;81;21081;-81
2022/01/10 08:53:57;;;;;;;48.15;22.85;;;;;;;4.45;80.15;100350.77;1758559;81;20944;-80
2022/01/10 08:56:24;;;;;;;46.35;22.60;;;;;;;4.47;80.00;100350.25;1758231;81;20971;-81
2022/01/10 08:58:51;;;;;;;41.55;22.05;;;;;;;4.47;79.80;100354.14;1758440;81;20990;-81
2022/01/10 09:01:19;;;;;;;38.38;21.40;;;;;;;4.45;79.45;100356.41;1758329;81;21801;-82
2022/01/10 09:03:46;;;;;;;38.05;21.95;;;;;;;4.44;79.55;100349.52;1758307;81;20959;-82
2022/01/10 09:06:13;;;;;;;43.02;22.75;;;;;;;4.45;79.56;100349.46;1758276;81;21109;-80
2022/01/10 09:08:42;;;;;;;35.90;22.30;;;;;;;4.47;79.51;100345.05;1758492;81;20947;-80
2022/01/10 09:11:10;;;;;;;48.70;25.23;;;;;;;4.51;79.59;100343.16;1757756;80;20927;-80
2022/01/10 09:13:37;;;;;;;43.40;26.42;;;;;;;4.55;79.47;100339.55;1758512;81;21102;-81
2022/01/10 09:16:04;;;;;;;45.55;24.55;;;;;;;4.57;79.34;100342.93;1758206;81;21308;-81
2022/01/10 09:18:32;;;;;;;48.45;26.37;;;;;;;4.57;79.08;100350.72;1758287;81;20923;-81
2022/01/10 09:20:58;;;;;;;46.58;25.43;;;;;;;4.55;78.89;100357.72;1758182;81;20916;-80
2022/01/10 09:23:26;;;;;;;55.67;24.67;;;;;;;4.49;78.78;100352.77;1758198;81;21421;-81
2022/01/10 09:25:52;;;;;;;45.63;26.10;;;;;;;4.46;79.17;100351.59;1758091;80;21118;-81
2022/01/10 09:28:19;;;;;;;49.23;26.70;;;;;;;4.45;79.44;100361.14;1760271;81;20920;-77
2022/01/10 09:30:47;;;;;;;50.45;26.30;;;;;;;4.45;79.51;100357.71;1758478;81;20896;-81
2022/01/10 09:33:14;;;;;;;48.25;25.45;;;;;;;4.46;79.69;100349.00;1758130;81;21512;-81
2022/01/10 09:35:43;;;;;;;52.88;27.62;;;;;;;4.47;79.74;100348.95;1758590;80;20916;-82
2022/01/10 09:38:10;;;;;;;54.30;27.98;;;;;;;4.50;79.66;100345.38;1758380;81;21121;-81
2022/01/10 09:40:38;;;;;;;49.03;27.48;;;;;;;4.52;79.76;100341.81;1758204;81;20948;-81
2022/01/10 09:43:05;;;;;;;63.95;29.02;;;;;;;4.56;79.75;100339.95;1751430;81;20987;-80
2022/01/10 09:45:32;;;;;;;50.55;28.35;;;;;;;4.55;79.64;100340.38;1745069;81;20900;-80
2022/01/10 09:48:00;;;;;;;67.75;31.07;;;;;;;4.49;79.67;100337.19;1745284;81;20920;-80
2022/01/10 09:50:27;;;;;;;55.92;29.25;;;;;;;4.48;79.76;100342.84;1745167;82;21145;-81
2022/01/10 09:52:54;;;;;;;66.80;30.52;;;;;;;4.52;79.71;100347.02;1744900;82;20960;-79
2022/01/10 09:55:21;;;;;;;64.30;29.60;;;;;;;4.57;79.70;100350.72;1744775;81;21327;-80
2022/01/10 09:57:49;;;;;;;58.20;30.02;;;;;;;4.64;79.79;100348.73;1744610;82;20964;-82
2022/01/10 10:00:17;;;;;;;61.88;30.72;;;;;;;4.70;79.68;100345.89;1744776;82;21328;-81
2022/01/10 10:02:48;;;;;;;54.67;29.15;;;;;;;4.71;79.50;100352.77;1744557;81;21331;-81
2022/01/10 10:05:15;;;;;;;64.12;30.97;;;;;;;4.70;79.42;100353.22;1744484;82;21573;-80
2022/01/10 10:07:42;;;;;;;67.50;30.72;;;;;;;4.70;79.40;100346.73;1744940;82;20952;-81
2022/01/10 10:10:12;;;;;;;54.67;29.63;;;;;;;4.70;79.20;100351.92;1744418;82;20893;-80
2022/01/10 10:12:44;;;;;;;59.08;29.40;;;;;;;4.67;79.04;100349.46;1744709;81;20964;-78
2022/01/10 10:15:16;;;;;;;58.68;30.20;;;;;;;4.63;79.44;100350.48;1744615;81;21141;-83
2022/01/10 10:17:44;;;;;;;65.03;31.25;;;;;;;4.62;79.62;100353.13;1744847;82;20869;-81
2022/01/10 10:20:15;;;;;;;56.92;29.98;;;;;;;4.63;79.78;100351.78;1744680;82;20968;-86
2022/01/10 10:22:44;;;;;;;58.30;28.73;;;;;;;4.67;79.82;100345.56;1744712;81;20937;-77
2022/01/10 10:25:11;;;;;;;59.63;30.30;;;;;;;4.69;79.62;100350.67;1744506;82;20913;-77
2022/01/10 10:27:41;;;;;;;54.63;27.58;;;;;;;4.69;79.74;100350.67;1745207;82;21750;-77
2022/01/10 10:30:14;;;;;;;57.05;28.50;;;;;;;4.70;79.92;100345.43;1745612;81;20940;-76
2022/01/10 10:32:41;;;;;;;50.75;27.22;;;;;;;4.73;79.89;100342.70;1744947;81;20889;-76
2022/01/10 10:35:09;;;;;;;59.60;28.98;;;;;;;4.73;79.71;100346.59;1744552;82;20940;-76
2022/01/10 10:37:38;;;;;;;59.33;28.65;;;;;;;4.72;79.63;100339.72;1744934;82;21092;-77
2022/01/10 10:40:09;;;;;;;59.18;28.38;;;;;;;4.70;79.56;100338.94;1744419;81;21131;-77
2022/01/10 10:42:41;;;;;;;49.98;24.90;;;;;;;4.66;79.59;100337.83;1744285;80;21008;-76
2022/01/10 10:45:11;;;;;;;55.10;28.23;;;;;;;4.61;79.69;100334.12;1744762;82;21533;-75
2022/01/10 10:47:43;;;;;;;52.67;26.23;;;;;;;4.59;79.72;100338.98;1744665;81;20976;-77
2022/01/10 10:50:10;;;;;;;48.92;25.75;;;;;;;4.60;79.87;100348.45;1744969;81;20878;-78
2022/01/10 10:52:39;;;;;;;44.93;25.32;;;;;;;4.60;79.85;100345.85;1744957;82;21119;-78
2022/01/10 10:55:09;;;;;;;57.43;27.67;;;;;;;4.61;79.97;100347.56;1744506;82;20881;-77
2022/01/10 10:57:36;;;;;;;51.13;27.73;;;;;;;4.64;79.99;100354.76;1744851;81;21037;-82
2022/01/10 11:00:07;;;;;;;52.85;27.70;;;;;;;4.69;79.97;100361.94;1744556;82;20936;-77
2022/01/10 11:02:34;;;;;;;60.63;30.97;;;;;;;4.73;79.92;100362.64;1744513;81;20928;-76
2022/01/10 11:05:04;;;;;;;54.20;29.35;;;;;;;4.76;79.64;100367.73;1733908;82;21131;-74
2022/01/10 11:07:32;;;;;;;67.27;32.13;;;;;;;4.76;79.56;100372.47;1744036;81;20893;-75
2022/01/10 11:09:59;;;;;;;75.75;34.70;;;;;;;4.76;79.47;100377.66;1744508;82;20944;-77
2022/01/10 11:12:26;;;;;;;67.25;33.18;;;;;;;4.76;79.37;100380.26;1744641;82;20984;-74
2022/01/10 11:14:56;;;;;;;66.42;33.20;;;;;;;4.75;79.19;100373.36;1733970;82;21454;-76
2022/01/10 11:17:23;;;;;;;64.85;31.35;;;;;;;4.72;79.14;100379.14;1744515;81;21153;-76
2022/01/10 11:20:17;;;;;;;76.87;34.45;;;;;;;4.68;79.21;100379.70;1744512;82;20936;-76
2022/01/10 11:22:47;;;;;;;69.42;33.00;;;;;;;4.65;79.38;100369.91;1744481;81;21431;-78
2022/01/10 11:25:30;;;;;;;69.87;34.23;;;;;;;4.62;79.40;100373.45;1744528;82;20940;-77
2022/01/10 11:28:07;;;;;;;77.30;34.90;;;;;;;4.56;79.55;100374.55;1744446;81;20944;-76
2022/01/10 11:30:45;;;;;;;76.17;33.90;;;;;;;4.57;79.68;100380.13;1744461;81;21123;-76
2022/01/10 11:33:15;;;;;;;77.75;34.80;;;;;;;4.58;79.65;100374.50;1744404;82;20889;-77
2022/01/10 11:35:47;;;;;;;73.60;33.50;;;;;;;4.59;79.81;100380.08;1744709;81;20913;-74
2022/01/10 11:38:37;;;;;;;88.62;35.58;;;;;;;4.61;79.91;100382.16;1744775;81;20968;-83